This is the latest recevied weather packets stored in our database for station/object I5EKX-13. If no packets are shown the sender has not sent any weather packets the latest 10 day(s).
| Time | Temp. | Humidity | Pressure | Rain* | Wind** | Luminosity | Snow |
|---|---|---|---|---|---|---|---|
| 1777846475 | 12.78° C | 82% | 1014.2 hPa | - | - | - | - |
| 1777845270 | 12.22° C | 85% | 1014.1 hPa | - | - | - | - |
| 1777844067 | 13.33° C | 83% | 1014 hPa | - | - | - | - |
| 1777842862 | 13.33° C | 84% | 1014 hPa | - | - | - | - |
| 1777841657 | 13.33° C | 82% | 1014.1 hPa | - | - | - | - |
| 1777840453 | 12.78° C | 82% | 1013.9 hPa | - | - | - | - |
| 1777839250 | 12.22° C | 82% | 1013.9 hPa | - | - | - | - |
| 1777838045 | 12.78° C | 80% | 1013.8 hPa | - | - | - | - |
| 1777836840 | 13.33° C | 79% | 1013.7 hPa | - | - | - | - |
| 1777835638 | 13.33° C | 78% | 1013.7 hPa | - | - | - | - |
| 1777834432 | 14.44° C | 76% | 1013.7 hPa | - | - | - | - |
| 1777833228 | 15° C | 76% | 1013.5 hPa | - | - | - | - |
| 1777832023 | 16.11° C | 75% | 1013.5 hPa | - | - | - | - |
| 1777830819 | 17.22° C | 71% | 1013.5 hPa | - | - | - | - |
| 1777829614 | 19.44° C | 65% | 1013.4 hPa | - | - | - | - |
| 1777828409 | 19.44° C | 64% | 1013.5 hPa | - | - | - | - |
| 1777827204 | 19.44° C | 64% | 1013.4 hPa | - | - | - | - |
| 1777826000 | 19.44° C | 64% | 1013.3 hPa | - | - | - | - |
| 1777824796 | 20° C | 62% | 1013.4 hPa | - | - | - | - |
| 1777822386 | 20.56° C | 56% | 1013.5 hPa | - | - | - | - |
| 1777821181 | 21.11° C | 59% | 1013.7 hPa | - | - | - | - |
| 1777818772 | 22.22° C | 56% | 1013.9 hPa | - | - | - | - |
| 1777817568 | 23.33° C | 53% | 1014.2 hPa | - | - | - | - |
| 1777815159 | 23.33° C | 55% | 1014.8 hPa | - | - | - | - |
| 1777813954 | 24.44° C | 52% | 1015.2 hPa | - | - | - | - |
* Rain since midnight (hover to see other rain measurements)
** Current wind speed in m/s (hover to see current wind gust speed)